Latest Weather Observations for Launceston

IDT60801

Issued at 11:31 am EST Tuesday 21 April 2015 (issued every 30 minutes, with the page automatically refreshed every 10 minutes)

About weather observations | Map of weather stations | Latest weather observations for TAS | Other Formats
Station Details ID: 091237 Name: LAUNCESTON (TI TREE BEND) Lat: -41.42 Lon: 147.12 Height: 5.0 m
Data from the previous 72 hours. | See also: Recent months at Launceston
Date/Time
EST
Temp
°C
App
Temp
°C
Dew
Point
Rel
Hum
%
Delta-T
°C
Wind Press
QNH
hPa
Press
MSL
hPa
Rain
since 9 am
mm
Dir
 
Spd
km/h
Gust
km/h
Spd
kts
Gust
kts
21/11:30am 12.8 11.0 5.5 61 3.4 SSW 4 7 2 4 - - 0.0
21/11:00am 11.7 10.5 4.7 62 3.2 CALM 0 4 0 2 - - 0.0
21/10:30am 10.0 8.0 4.6 69 2.4 SE 4 6 2 3 - - 0.0
21/10:00am 8.5 5.8 3.9 73 2.0 ESE 7 9 4 5 - - 0.0
21/09:30am 7.4 5.0 4.2 80 1.4 E 6 9 3 5 - - 0.0
21/09:00am 7.0 4.8 3.6 79 1.4 ENE 4 6 2 3 - - 0.0
21/08:30am 6.4 4.2 3.2 80 1.3 ESE 4 6 2 3 - - 0.0
21/08:00am 5.9 3.3 3.4 84 1.0 E 6 7 3 4 - - 0.0
21/07:30am 3.6 0.8 2.1 90 0.6 E 6 9 3 5 - - 0.0
21/07:00am 2.4 -0.2 1.2 92 0.5 SSE 4 6 2 3 - - 0.0
21/06:30am 2.6 0.1 1.3 91 0.5 E 4 7 2 4 - - 0.0
21/06:00am 2.2 0.4 0.9 91 0.5 CALM 0 0 0 0 - - 0.0
21/05:30am 2.6 0.1 1.3 91 0.5 E 4 6 2 3 - - 0.0
21/05:00am 2.9 0.8 1.7 92 0.5 ESE 2 4 1 2 - - 0.0
21/04:30am 2.5 0.3 1.2 91 0.5 ESE 2 4 1 2 - - 0.0
21/04:00am 3.3 0.9 2.1 92 0.5 ENE 4 6 2 3 - - 0.0
21/03:30am 3.4 1.7 1.9 90 0.6 CALM 0 0 0 0 - - 0.0
21/03:00am 3.7 2.0 1.9 88 0.7 CALM 0 2 0 1 - - 0.0
21/02:30am 3.9 1.8 1.9 87 0.8 E 2 4 1 2 - - 0.0
21/02:00am 3.8 1.7 1.8 87 0.8 S 2 2 1 1 - - 0.0
21/01:30am 4.2 2.6 2.2 87 0.8 CALM 0 2 0 1 - - 0.0
21/01:00am 4.2 2.6 2.2 87 0.8 CALM 0 0 0 0 - - 0.0
21/12:30am 4.7 3.0 2.1 83 1.0 CALM 0 2 0 1 - - 0.0
21/12:00am 5.4 2.5 2.6 82 1.1 E 7 9 4 5 - - 0.0
 
Date/Time
EST
Temp
°C
App
Temp
°C
Dew
Point
Rel
Hum
%
Delta-T
°C
Wind Press
QNH
hPa
Press
MSL
hPa
Rain
since 9 am
mm
Dir
 
Spd
km/h
Gust
km/h
Spd
kts
Gust
kts
20/11:30pm 4.9 2.9 2.4 84 1.0 SSE 2 2 1 1 - - 0.0
20/11:00pm 5.3 3.0 2.7 83 1.1 E 4 7 2 4 - - 0.0
20/10:30pm 5.9 4.1 3.7 86 0.9 S 2 2 1 1 - - 0.0
20/10:00pm 6.3 3.6 2.8 78 1.4 E 6 7 3 4 - - 0.0
20/09:30pm 6.5 4.3 3.1 79 1.4 E 4 6 2 3 - - 0.0
20/09:00pm 6.7 4.8 3.1 78 1.5 ENE 2 4 1 2 - - 0.0
20/08:30pm 7.0 5.8 4.5 84 1.1 CALM 0 0 0 0 - - 0.0
20/08:00pm 8.2 7.3 6.0 86 1.0 CALM 0 0 0 0 - - 0.0
20/07:30pm 8.2 6.8 5.3 82 1.3 WSW 2 4 1 2 - - 0.0
20/07:00pm 9.4 8.0 5.4 76 1.8 NW 2 2 1 1 - - 0.0
20/06:30pm 10.6 8.7 4.7 67 2.7 NNW 4 7 2 4 - - 0.0
20/06:00pm 11.0 8.5 4.5 64 2.9 NW 7 11 4 6 - - 0.0
20/05:30pm 12.2 9.6 4.2 58 3.6 NNW 7 9 4 5 - - 0.0
20/05:00pm 15.1 12.3 -0.2 35 6.4 WNW 4 6 2 3 - - 0.0
20/04:30pm 15.8 13.0 -0.4 33 6.8 WNW 4 6 2 3 - - 0.0
20/04:00pm 16.1 12.9 -0.2 33 6.9 WNW 6 7 3 4 - - 0.0
20/03:30pm 16.1 13.3 -0.2 33 6.9 NNE 4 9 2 5 - - 0.0
20/03:00pm 16.6 13.3 -1.0 30 7.4 NNE 6 9 3 5 - - 0.0
20/02:30pm 15.9 12.6 -1.2 31 7.1 NNW 6 13 3 7 - - 0.0
20/02:00pm 15.3 11.7 -3.6 27 7.4 NNE 6 9 3 5 - - 0.0
20/01:30pm 15.6 12.6 -1.9 30 7.1 SE 4 7 2 4 - - 0.0
20/01:00pm 15.2 11.8 -1.8 31 6.9 NNE 6 7 3 4 - - 0.0
20/12:30pm 14.7 11.8 -1.0 34 6.5 NNE 4 9 2 5 - - 0.0
20/12:00pm 13.6 10.3 -1.2 36 6.0 SSW 6 9 3 5 - - 0.0
20/11:30am 12.9 10.1 -0.4 40 5.4 SSE 4 9 2 5 - - 0.0
20/11:00am 12.0 9.5 1.3 48 4.5 SE 4 9 2 5 - - 0.0
20/10:30am 10.0 7.4 1.1 54 3.7 SE 4 7 2 4 - - 0.0
20/10:00am 8.8 6.4 2.2 63 2.8 ESE 4 6 2 3 - - 0.0
20/09:30am 6.9 4.7 1.0 66 2.3 E 2 4 1 2 - - 0.0
20/09:00am 5.0 2.8 0.9 75 1.6 ENE 2 4 1 2 - - 0.0
20/08:30am 3.5 1.2 0.7 82 1.1 NNE 2 4 1 2 - - 0.0
20/08:00am 2.6 0.6 0.0 83 1.0 CALM 0 0 0 0 - - 0.0
20/07:30am 0.6 -2.3 -0.8 90 0.5 E 4 6 2 3 - - 0.0
20/07:00am -0.5 -3.1 -1.8 91 0.4 E 2 6 1 3 - - 0.0
20/06:30am -0.3 -3.3 -1.6 91 0.4 ESE 4 6 2 3 - - 0.0
20/06:00am -0.1 -3.1 -1.5 90 0.5 ESE 4 4 2 2 - - 0.0
20/05:30am -0.1 -3.4 -1.4 91 0.4 E 6 7 3 4 - - 0.0
20/05:00am 0.2 -2.7 -1.1 91 0.5 E 4 6 2 3 - - 0.0
20/04:30am 0.2 -2.3 -1.2 90 0.5 NE 2 4 1 2 - - 0.0
20/04:00am 0.8 -1.3 -0.6 90 0.5 CALM 0 2 0 1 - - 0.0
20/03:30am 1.0 -1.8 -0.6 89 0.6 E 4 6 2 3 - - 0.0
20/03:00am 0.8 -1.7 -0.8 89 0.6 SSE 2 4 1 2 - - 0.0
20/02:30am 1.0 -2.2 -0.8 88 0.6 E 6 7 3 4 - - 0.0
20/02:00am 1.3 -1.1 -0.5 88 0.6 SSE 2 2 1 1 - - 0.0
20/01:30am 1.8 -1.6 -0.3 86 0.8 ENE 7 9 4 5 - - 0.0
20/01:00am 2.0 -0.8 -0.2 85 0.8 SE 4 4 2 2 - - 0.0
20/12:30am 2.3 -0.5 -0.1 84 0.9 E 4 4 2 2 - - 0.0
20/12:00am 2.4 0.0 -0.2 83 1.0 E 2 4 1 2 - - 0.0
 
Date/Time
EST
Temp
°C
App
Temp
°C
Dew
Point
Rel
Hum
%
Delta-T
°C
Wind Press
QNH
hPa
Press
MSL
hPa
Rain
since 9 am
mm
Dir
 
Spd
km/h
Gust
km/h
Spd
kts
Gust
kts
19/11:30pm 2.9 0.5 0.0 81 1.1 ESE 2 4 1 2 - - 0.0
19/11:00pm 3.6 1.2 0.0 77 1.3 NNE 2 6 1 3 - - 0.0
19/10:30pm 4.3 1.5 -0.5 71 1.8 E 4 6 2 3 - - 0.0
19/10:00pm 4.7 1.6 -0.1 71 1.8 NW 6 7 3 4 - - 0.0
19/09:30pm 5.0 2.9 -0.8 66 2.2 CALM 0 4 0 2 - - 0.0
19/09:00pm 4.8 1.5 -1.4 64 2.3 E 6 11 3 6 - - 0.0
19/08:30pm 6.2 3.4 -0.3 63 2.5 ESE 4 7 2 4 - - 0.0
19/08:00pm 8.4 4.9 -1.1 51 3.7 ESE 7 9 4 5 - - 0.0
19/07:30pm 8.8 5.5 -1.3 49 3.9 ESE 6 7 3 4 - - 0.0
19/07:00pm 9.0 5.5 -1.7 47 4.1 E 7 11 4 6 - - 0.0
19/06:30pm 10.2 6.1 -2.8 40 4.9 SSW 9 11 5 6 - - 0.0
19/06:00pm 10.4 6.7 -2.9 39 5.0 S 7 11 4 6 - - 0.0
19/05:30pm 11.7 7.5 -3.6 34 5.8 S 9 11 5 6 - - 0.0
19/05:00pm 12.7 7.7 -4.4 30 6.4 SSW 13 20 7 11 - - 0.0
19/04:30pm 13.2 7.4 -4.4 29 6.6 S 17 26 9 14 - - 0.0
19/04:00pm 14.1 8.6 -5.1 26 7.2 SSE 15 22 8 12 - - 0.0
19/03:30pm 13.9 9.0 -3.8 29 6.8 SE 13 19 7 10 - - 0.0
19/03:00pm 14.7 9.6 -2.2 31 6.8 SSE 15 20 8 11 - - 0.0
19/02:30pm 14.3 9.1 -3.0 30 6.8 S 15 26 8 14 - - 0.0
19/02:00pm 14.1 8.5 -3.2 30 6.7 S 17 30 9 16 - - 0.0
19/01:30pm 13.7 6.6 -4.0 29 6.7 SSE 24 37 13 20 - - 0.0
19/01:00pm 14.1 8.2 -1.1 35 6.2 SSE 20 33 11 18 - - 0.0
19/12:30pm 13.4 7.0 -1.7 35 6.0 S 22 33 12 18 - - 0.0
19/12:00pm 13.6 7.8 -0.1 39 5.7 SSE 20 32 11 17 - - 0.0
19/11:30am 13.6 7.9 0.3 40 5.6 SSE 20 32 11 17 - - 0.0
19/11:00am 12.8 7.2 -0.1 41 5.3 SSE 19 32 10 17 - - 0.0
19/10:30am 12.7 7.7 1.1 45 4.9 SE 17 24 9 13 - - 0.0
19/10:00am 11.8 5.5 -0.7 42 5.0 S 22 32 12 17 - - 0.0
19/09:30am 11.6 8.0 2.9 55 3.8 SE 11 22 6 12 - - 0.0
19/09:00am 11.0 6.2 2.6 56 3.6 SE 17 32 9 17 - - 2.6
19/08:30am 10.1 6.0 2.5 59 3.2 SE 13 22 7 12 - - 2.6
19/08:00am 9.0 4.8 4.0 71 2.2 SSE 15 22 8 12 - - 2.6
19/07:30am 8.5 5.1 3.8 72 2.0 SE 11 19 6 10 - - 2.6
19/07:00am 4.7 2.2 3.7 93 0.4 E 6 9 3 5 - - 2.6
19/06:30am 4.6 2.5 3.7 94 0.4 E 4 6 2 3 - - 2.6
19/06:00am 4.4 1.8 3.4 93 0.4 SSE 6 9 3 5 - - 2.6
19/05:30am 4.6 1.9 3.7 94 0.4 SSW 7 9 4 5 - - 2.6
19/05:00am 4.4 3.0 3.5 94 0.4 CALM 0 4 0 2 - - 2.6
19/04:30am 4.5 2.7 3.5 93 0.4 SSE 2 7 1 4 - - 2.6
19/04:00am 5.2 3.2 4.3 94 0.4 E 4 4 2 2 - - 2.6
19/03:30am 6.0 3.8 5.1 94 0.4 SE 6 11 3 6 - - 2.6
19/03:00am 5.6 3.7 4.7 94 0.4 ESE 4 6 2 3 - - 2.6
19/02:30am 5.6 4.4 4.4 92 0.5 CALM 0 0 0 0 - - 2.6
19/02:00am 6.2 4.3 5.0 92 0.5 S 4 11 2 6 - - 2.6
19/01:30am 6.6 5.5 5.2 91 0.6 CALM 0 0 0 0 - - 2.6
19/01:00am 7.7 6.0 6.0 89 0.8 WNW 4 6 2 3 - - 2.6
19/12:30am 8.7 7.1 6.2 84 1.1 ESE 4 7 2 4 - - 2.6
19/12:00am 9.3 7.2 6.0 80 1.5 NW 6 9 3 5 - - 2.6
 
Date/Time
EST
Temp
°C
App
Temp
°C
Dew
Point
Rel
Hum
%
Delta-T
°C
Wind Press
QNH
hPa
Press
MSL
hPa
Rain
since 9 am
mm
Dir
 
Spd
km/h
Gust
km/h
Spd
kts
Gust
kts
18/11:30pm 9.7 6.8 6.4 80 1.5 NW 11 13 6 7 - - 2.6
18/11:00pm 9.8 6.8 6.2 78 1.7 NNW 11 15 6 8 - - 2.6
18/10:30pm 10.7 8.2 6.6 76 1.9 NNW 9 13 5 7 - - 2.6
18/10:00pm 10.7 8.3 7.0 78 1.8 NNW 9 15 5 8 - - 2.6
18/09:30pm 11.1 8.3 6.8 75 2.0 N 11 17 6 9 - - 2.6
18/09:00pm 11.0 8.8 7.7 80 1.6 N 9 13 5 7 - - 2.6
18/08:30pm 11.1 9.0 8.3 83 1.4 NNW 9 13 5 7 - - 2.6
18/08:00pm 11.4 9.3 8.4 82 1.5 NW 9 17 5 9 - - 2.6
18/07:30pm 12.1 10.5 8.6 79 1.7 N 7 13 4 7 - - 2.6
18/07:00pm 12.3 11.0 9.3 82 1.5 NNW 6 11 3 6 - - 2.4
18/06:30pm 12.5 10.5 8.8 78 1.8 NW 9 15 5 8 - - 2.4
18/06:00pm 13.4 10.0 9.3 76 2.1 W 17 28 9 15 - - 2.2
18/05:30pm 15.1 12.3 12.6 85 1.4 NNW 19 30 10 16 - - 0.4
18/05:00pm 14.9 12.5 12.8 87 1.2 NNW 17 28 9 15 - - 0.0
18/04:30pm 14.9 10.7 12.4 85 1.4 NNW 26 39 14 21 - - 0.0
18/04:00pm 15.2 12.4 12.5 84 1.5 NNW 19 35 10 19 - - 0.0
18/03:30pm 15.4 12.2 12.0 80 1.8 NNW 20 33 11 18 - - 0.0
18/03:00pm 16.1 11.1 11.1 72 2.7 NNW 28 41 15 22 - - 0.0
18/02:30pm 16.3 10.8 10.6 69 3.0 NNW 30 43 16 23 - - 0.0
18/02:00pm 16.8 12.2 10.9 68 3.2 NNW 26 39 14 21 - - 0.0
18/01:30pm 17.4 11.8 10.1 62 3.9 NNW 30 44 16 24 - - 0.0
18/01:00pm 17.5 12.2 9.7 60 4.1 NNW 28 43 15 23 - - 0.0
18/12:30pm 17.5 12.1 9.4 59 4.2 NW 28 44 15 24 - - 0.0
18/12:00pm 17.5 11.5 10.1 62 3.9 NNW 32 44 17 24 - - 0.0

Other Formats:

Comma delimited format used in spreadsheet applications
http://www.bom.gov.au/fwo/IDT60801/IDT60801.94969.axf

JavaScript Object Notation format (JSON) in row-major order
http://www.bom.gov.au/fwo/IDT60801/IDT60801.94969.json